createdAt,value
2018-02-04T00:00:50.193Z,1003.25
2018-02-04T00:01:50.202Z,1003.31
2018-02-04T00:02:50.182Z,1003.34
2018-02-04T00:03:50.159Z,1003.30
2018-02-04T00:04:50.169Z,1003.32
2018-02-04T00:05:50.137Z,1003.32
2018-02-04T00:06:50.187Z,1003.33
2018-02-04T00:07:50.137Z,1003.39
2018-02-04T00:08:50.151Z,1003.37
2018-02-04T00:09:50.102Z,1003.38
2018-02-04T00:10:50.710Z,1003.35
2018-02-04T00:11:50.091Z,1003.39
2018-02-04T00:12:50.087Z,1003.40
2018-02-04T00:13:50.088Z,1003.34
2018-02-04T00:14:50.112Z,1003.39
2018-02-04T00:15:50.082Z,1003.38
2018-02-04T00:16:50.056Z,1003.36
2018-02-04T00:17:50.052Z,1003.36
2018-02-04T00:18:50.028Z,1003.36
2018-02-04T00:19:52.712Z,1003.41
2018-02-04T00:20:50.015Z,1003.42
2018-02-04T00:21:50.004Z,1003.46
2018-02-04T00:22:50.018Z,1003.47
2018-02-04T00:23:50.718Z,1003.45
2018-02-04T00:24:50.719Z,1003.45
2018-02-04T00:25:49.984Z,1003.45
2018-02-04T00:26:49.977Z,1003.50
2018-02-04T00:27:49.954Z,1003.48
2018-02-04T00:28:49.964Z,1003.49
2018-02-04T00:29:49.929Z,1003.49
2018-02-04T00:30:49.917Z,1003.44
2018-02-04T00:31:49.919Z,1003.52
2018-02-04T00:32:49.908Z,1003.45
2018-02-04T00:33:49.890Z,1003.50
2018-02-04T00:34:49.907Z,1003.50
2018-02-04T00:35:49.879Z,1003.52
2018-02-04T00:36:49.880Z,1003.53
2018-02-04T00:37:49.883Z,1003.53
2018-02-04T00:38:53.049Z,1003.57
2018-02-04T00:39:49.851Z,1003.57
2018-02-04T00:40:49.857Z,1003.58
2018-02-04T00:41:50.724Z,1003.58
2018-02-04T00:42:49.877Z,1003.60
2018-02-04T00:43:49.878Z,1003.66
2018-02-04T00:44:49.851Z,1003.63
2018-02-04T00:45:50.746Z,1003.62
2018-02-04T00:46:49.961Z,1003.63
2018-02-04T00:47:49.875Z,1003.65
2018-02-04T00:48:50.721Z,1003.68
2018-02-04T00:49:52.733Z,1003.64
2018-02-04T00:50:50.100Z,1003.63
2018-02-04T00:51:49.760Z,1003.64
2018-02-04T00:52:49.734Z,1003.63
2018-02-04T00:53:50.702Z,1003.64
2018-02-04T00:54:50.255Z,1003.66
2018-02-04T00:55:49.725Z,1003.63
2018-02-04T00:56:49.690Z,1003.65
2018-02-04T00:57:49.698Z,1003.66
2018-02-04T00:58:49.687Z,1003.68
2018-02-04T00:59:49.665Z,1003.70
2018-02-04T01:00:49.666Z,1003.71
2018-02-04T01:01:49.657Z,1003.70
2018-02-04T01:02:49.659Z,1003.74
2018-02-04T01:03:49.631Z,1003.77
2018-02-04T01:04:49.642Z,1003.81
2018-02-04T01:05:49.625Z,1003.79
2018-02-04T01:06:49.619Z,1003.80
2018-02-04T01:07:49.598Z,1003.82
2018-02-04T01:08:49.586Z,1003.81
2018-02-04T01:09:49.605Z,1003.80
2018-02-04T01:10:49.583Z,1003.84
2018-02-04T01:11:49.584Z,1003.88
2018-02-04T01:12:50.226Z,1003.91
2018-02-04T01:13:49.570Z,1003.88
2018-02-04T01:14:49.539Z,1003.90
2018-02-04T01:15:49.542Z,1003.88
2018-02-04T01:16:50.230Z,1003.90
2018-02-04T01:17:49.516Z,1003.93
2018-02-04T01:18:49.495Z,1003.91
2018-02-04T01:19:49.531Z,1003.95
2018-02-04T01:20:49.499Z,1003.93
2018-02-04T01:21:49.484Z,1003.99
2018-02-04T01:22:49.484Z,1003.94
2018-02-04T01:23:49.462Z,1003.95
2018-02-04T01:24:49.480Z,1004.00
2018-02-04T01:25:49.439Z,1004.01
2018-02-04T01:26:49.452Z,1004.02
2018-02-04T01:27:49.432Z,1004.03
2018-02-04T01:28:49.425Z,1004.02
2018-02-04T01:29:49.406Z,1003.98
2018-02-04T01:30:49.421Z,1003.97
2018-02-04T01:31:49.389Z,1003.99
2018-02-04T01:32:49.378Z,1003.99
2018-02-04T01:33:49.373Z,1004.00
2018-02-04T01:34:49.363Z,1004.01
2018-02-04T01:35:49.349Z,1004.04
2018-02-04T01:36:49.358Z,1004.06
2018-02-04T01:37:49.342Z,1004.07
2018-02-04T01:38:49.326Z,1004.07
2018-02-04T01:39:49.313Z,1004.11
2018-02-04T01:40:49.320Z,1004.10
2018-02-04T01:41:49.339Z,1004.12
2018-02-04T01:42:49.317Z,1004.16
2018-02-04T01:43:49.311Z,1004.13
2018-02-04T01:44:49.299Z,1004.19
2018-02-04T01:45:49.270Z,1004.19
2018-02-04T01:46:49.257Z,1004.18
2018-02-04T01:47:50.238Z,1004.18
2018-02-04T01:48:49.236Z,1004.21
2018-02-04T01:49:49.245Z,1004.21
2018-02-04T01:50:49.222Z,1004.24
2018-02-04T01:51:49.222Z,1004.25
2018-02-04T01:52:49.230Z,1004.23
2018-02-04T01:53:49.198Z,1004.26
2018-02-04T01:54:49.188Z,1004.29
2018-02-04T01:55:49.183Z,1004.25
2018-02-04T01:56:49.168Z,1004.25
2018-02-04T01:57:49.162Z,1004.27
2018-02-04T01:58:49.160Z,1004.27
2018-02-04T01:59:49.144Z,1004.25
2018-02-04T02:00:49.135Z,1004.27
2018-02-04T02:01:49.144Z,1004.24
2018-02-04T02:02:49.746Z,1004.29
2018-02-04T02:03:49.111Z,1004.28
2018-02-04T02:04:49.097Z,1004.27
2018-02-04T02:05:49.093Z,1004.30
2018-02-04T02:06:49.083Z,1004.25
2018-02-04T02:07:49.092Z,1004.26
2018-02-04T02:08:49.062Z,1004.29
2018-02-04T02:09:49.057Z,1004.29
2018-02-04T02:10:49.759Z,1004.28
2018-02-04T02:11:49.046Z,1004.31
2018-02-04T02:12:49.055Z,1004.36
2018-02-04T02:13:49.026Z,1004.35
2018-02-04T02:14:49.007Z,1004.33
2018-02-04T02:15:49.008Z,1004.32
2018-02-04T02:16:48.993Z,1004.33
2018-02-04T02:17:49.752Z,1004.38
2018-02-04T02:18:48.976Z,1004.38
2018-02-04T02:19:48.971Z,1004.42
2018-02-04T02:20:48.958Z,1004.41
2018-02-04T02:21:48.951Z,1004.45
2018-02-04T02:22:48.944Z,1004.43
2018-02-04T02:23:48.935Z,1004.42
2018-02-04T02:24:49.753Z,1004.44
2018-02-04T02:25:48.933Z,1004.47
2018-02-04T02:26:48.917Z,1004.43
2018-02-04T02:27:48.904Z,1004.47
2018-02-04T02:28:49.763Z,1004.45
2018-02-04T02:29:48.882Z,1004.45
2018-02-04T02:30:49.758Z,1004.47
2018-02-04T02:31:49.773Z,1004.50
2018-02-04T02:32:48.878Z,1004.49
2018-02-04T02:33:48.851Z,1004.43
2018-02-04T02:34:48.828Z,1004.49
2018-02-04T02:35:49.781Z,1004.50
2018-02-04T02:36:48.817Z,1004.52
2018-02-04T02:37:48.796Z,1004.50
2018-02-04T02:38:48.808Z,1004.57
2018-02-04T02:39:48.796Z,1004.58
2018-02-04T02:40:48.789Z,1004.62
2018-02-04T02:41:48.770Z,1004.60
2018-02-04T02:42:48.775Z,1004.63
2018-02-04T02:43:48.758Z,1004.61
2018-02-04T02:44:48.745Z,1004.63
2018-02-04T02:45:48.736Z,1004.65
2018-02-04T02:46:49.264Z,1004.68
2018-02-04T02:47:51.257Z,1004.68
2018-02-04T02:48:48.708Z,1004.72
2018-02-04T02:49:48.698Z,1004.75
2018-02-04T02:50:48.696Z,1004.75
2018-02-04T02:51:48.694Z,1004.81
2018-02-04T02:52:48.677Z,1004.85
2018-02-04T02:53:48.663Z,1004.88
2018-02-04T02:54:48.649Z,1004.82
2018-02-04T02:55:48.638Z,1004.88
2018-02-04T02:56:48.627Z,1004.89
2018-02-04T02:57:48.635Z,1004.88
2018-02-04T02:58:48.606Z,1004.92
2018-02-04T02:59:48.620Z,1004.89
2018-02-04T03:00:48.610Z,1004.93
2018-02-04T03:01:48.583Z,1004.94
2018-02-04T03:02:48.572Z,1004.93
2018-02-04T03:03:48.585Z,1004.98
2018-02-04T03:04:48.569Z,1005.02
2018-02-04T03:05:48.551Z,1005.05
2018-02-04T03:06:48.543Z,1005.09
2018-02-04T03:07:48.541Z,1005.08
2018-02-04T03:08:48.530Z,1005.10
2018-02-04T03:09:49.277Z,1005.10
2018-02-04T03:10:48.503Z,1005.19
2018-02-04T03:11:49.269Z,1005.23
2018-02-04T03:12:49.280Z,1005.24
2018-02-04T03:13:48.476Z,1005.26
2018-02-04T03:14:48.465Z,1005.26
2018-02-04T03:15:48.482Z,1005.28
2018-02-04T03:16:48.446Z,1005.31
2018-02-04T03:17:48.458Z,1005.27
2018-02-04T03:18:48.451Z,1005.35
2018-02-04T03:19:48.412Z,1005.32
2018-02-04T03:20:48.435Z,1005.37
2018-02-04T03:21:48.400Z,1005.40
2018-02-04T03:22:48.393Z,1005.47
2018-02-04T03:23:48.384Z,1005.45
2018-02-04T03:24:48.369Z,1005.42
2018-02-04T03:25:48.351Z,1005.49
2018-02-04T03:26:48.352Z,1005.57
2018-02-04T03:27:48.351Z,1005.56
2018-02-04T03:28:48.340Z,1005.58
2018-02-04T03:29:48.324Z,1005.60
2018-02-04T03:30:48.325Z,1005.61
2018-02-04T03:31:49.283Z,1005.65
2018-02-04T03:32:49.299Z,1005.70
2018-02-04T03:33:48.299Z,1005.74
2018-02-04T03:34:48.283Z,1005.69
2018-02-04T03:35:48.264Z,1005.73
2018-02-04T03:36:48.271Z,1005.75
2018-02-04T03:37:48.239Z,1005.72
2018-02-04T03:38:48.233Z,1005.77
2018-02-04T03:39:48.242Z,1005.80
2018-02-04T03:40:48.233Z,1005.79
2018-02-04T03:41:48.203Z,1005.78
2018-02-04T03:42:48.225Z,1005.85
2018-02-04T03:43:48.204Z,1005.86
2018-02-04T03:44:48.179Z,1005.92
2018-02-04T03:45:48.170Z,1005.96
2018-02-04T03:46:48.160Z,1005.97
2018-02-04T03:47:48.157Z,1006.07
2018-02-04T03:48:48.146Z,1006.09
2018-02-04T03:49:48.128Z,1006.13
2018-02-04T03:50:48.144Z,1006.16
2018-02-04T03:51:48.119Z,1006.15
2018-02-04T03:52:48.102Z,1006.10
2018-02-04T03:53:48.107Z,1006.13
2018-02-04T03:54:48.077Z,1006.14
2018-02-04T03:55:48.782Z,1006.19
2018-02-04T03:56:48.792Z,1006.16
2018-02-04T03:57:48.055Z,1006.19
2018-02-04T03:58:48.045Z,1006.19
2018-02-04T03:59:48.036Z,1006.27
2018-02-04T04:00:48.021Z,1006.26
2018-02-04T04:01:48.013Z,1006.28
2018-02-04T04:02:48.004Z,1006.32
2018-02-04T04:03:48.037Z,1006.38
2018-02-04T04:04:47.977Z,1006.36
2018-02-04T04:05:47.994Z,1006.41
2018-02-04T04:06:47.971Z,1006.43
2018-02-04T04:07:47.956Z,1006.44
2018-02-04T04:08:47.947Z,1006.46
2018-02-04T04:08:59.945Z,1006.48
2018-02-04T04:10:47.913Z,1006.49
2018-02-04T04:11:47.915Z,1006.53
2018-02-04T04:12:47.917Z,1006.54
2018-02-04T04:13:47.893Z,1006.53
2018-02-04T04:14:47.882Z,1006.55
2018-02-04T04:15:47.873Z,1006.64
2018-02-04T04:16:47.874Z,1006.63
2018-02-04T04:17:47.867Z,1006.67
2018-02-04T04:18:47.853Z,1006.69
2018-02-04T04:19:47.839Z,1006.72
2018-02-04T04:20:47.822Z,1006.72
2018-02-04T04:21:47.809Z,1006.75
2018-02-04T04:22:47.816Z,1006.73
2018-02-04T04:23:47.792Z,1006.80
2018-02-04T04:24:47.783Z,1006.79
2018-02-04T04:25:47.770Z,1006.75
2018-02-04T04:26:47.756Z,1006.81
2018-02-04T04:27:47.753Z,1006.78
2018-02-04T04:28:47.753Z,1006.82
2018-02-04T04:29:47.740Z,1006.87
2018-02-04T04:30:47.741Z,1006.87
2018-02-04T04:31:47.712Z,1006.89
2018-02-04T04:32:47.706Z,1006.89
2018-02-04T04:33:47.687Z,1006.94
2018-02-04T04:34:47.680Z,1006.98
2018-02-04T04:35:47.676Z,1007.00
2018-02-04T04:36:47.654Z,1006.96
2018-02-04T04:37:47.639Z,1006.99
2018-02-04T04:38:47.633Z,1007.02
2018-02-04T04:39:47.662Z,1007.06
2018-02-04T04:40:47.632Z,1007.07
2018-02-04T04:41:47.637Z,1007.06
2018-02-04T04:42:54.302Z,1007.09
2018-02-04T04:43:47.595Z,1007.12
2018-02-04T04:44:48.339Z,1007.14
2018-02-04T04:45:47.581Z,1007.11
2018-02-04T04:46:47.559Z,1007.15
2018-02-04T04:47:47.547Z,1007.16
2018-02-04T04:48:47.538Z,1007.19
2018-02-04T04:49:48.306Z,1007.17
2018-02-04T04:50:47.530Z,1007.23
2018-02-04T04:51:47.521Z,1007.17
2018-02-04T04:52:47.520Z,1007.23
2018-02-04T04:53:48.300Z,1007.26
2018-02-04T04:54:48.319Z,1007.28
2018-02-04T04:55:54.303Z,1007.27
2018-02-04T04:56:48.306Z,1007.23
2018-02-04T04:57:47.471Z,1007.26
2018-02-04T04:58:50.316Z,1007.29
2018-02-04T04:59:54.306Z,1007.31
2018-02-04T05:00:47.401Z,1007.31
2018-02-04T05:01:47.406Z,1007.31
2018-02-04T05:02:47.392Z,1007.32
2018-02-04T05:03:47.382Z,1007.38
2018-02-04T05:04:47.373Z,1007.35
2018-02-04T05:05:47.370Z,1007.40
2018-02-04T05:06:47.346Z,1007.39
2018-02-04T05:07:47.338Z,1007.38
2018-02-04T05:08:47.719Z,1007.35
2018-02-04T05:09:47.314Z,1007.42
2018-02-04T05:10:47.817Z,1007.45
2018-02-04T05:11:47.296Z,1007.48
2018-02-04T05:12:47.292Z,1007.52
2018-02-04T05:13:48.237Z,1007.54
2018-02-04T05:14:47.469Z,1007.52
2018-02-04T05:15:48.278Z,1007.53
2018-02-04T05:16:47.252Z,1007.55
2018-02-04T05:17:47.238Z,1007.58
2018-02-04T05:18:47.216Z,1007.62
2018-02-04T05:19:47.301Z,1007.61
2018-02-04T05:20:47.233Z,1007.62
2018-02-04T05:21:47.212Z,1007.69
2018-02-04T05:22:47.196Z,1007.72
2018-02-04T05:23:47.181Z,1007.74
2018-02-04T05:24:47.176Z,1007.70
2018-02-04T05:25:47.193Z,1007.78
2018-02-04T05:26:47.160Z,1007.77
2018-02-04T05:27:47.165Z,1007.84
2018-02-04T05:28:47.130Z,1007.88
2018-02-04T05:29:47.110Z,1007.81
2018-02-04T05:30:47.826Z,1007.85
2018-02-04T05:31:47.117Z,1007.86
2018-02-04T05:32:47.745Z,1007.87
2018-02-04T05:33:47.065Z,1007.88
2018-02-04T05:34:47.091Z,1007.89
2018-02-04T05:35:47.306Z,1007.99
2018-02-04T05:36:47.040Z,1007.96
2018-02-04T05:37:47.028Z,1007.94
2018-02-04T05:38:47.020Z,1008.03
2018-02-04T05:39:47.048Z,1007.99
2018-02-04T05:40:46.994Z,1008.09
2018-02-04T05:41:47.116Z,1008.07
2018-02-04T05:42:46.980Z,1008.13
2018-02-04T05:43:47.102Z,1008.19
2018-02-04T05:44:46.977Z,1008.16
2018-02-04T05:45:46.963Z,1008.14
2018-02-04T05:46:47.179Z,1008.22
2018-02-04T05:47:46.940Z,1008.22
2018-02-04T05:48:47.082Z,1008.23
2018-02-04T05:49:47.273Z,1008.30
2018-02-04T05:50:48.074Z,1008.28
2018-02-04T05:51:46.895Z,1008.32
2018-02-04T05:52:46.935Z,1008.29
2018-02-04T05:53:46.863Z,1008.38
2018-02-04T05:54:47.875Z,1008.32
2018-02-04T05:55:47.820Z,1008.39
2018-02-04T05:56:46.860Z,1008.43
2018-02-04T05:57:46.837Z,1008.40
2018-02-04T05:58:46.840Z,1008.48
2018-02-04T05:59:46.803Z,1008.47
2018-02-04T06:00:46.789Z,1008.56
2018-02-04T06:01:47.490Z,1008.53
2018-02-04T06:02:46.777Z,1008.57
2018-02-04T06:03:46.753Z,1008.57
2018-02-04T06:04:46.956Z,1008.59
2018-02-04T06:05:46.740Z,1008.65
2018-02-04T06:06:46.731Z,1008.63
2018-02-04T06:07:46.716Z,1008.72
2018-02-04T06:08:46.703Z,1008.72
2018-02-04T06:09:46.685Z,1008.75
2018-02-04T06:10:46.679Z,1008.74
2018-02-04T06:11:46.700Z,1008.76
2018-02-04T06:12:46.677Z,1008.79
2018-02-04T06:13:46.643Z,1008.82
2018-02-04T06:14:46.731Z,1008.79
2018-02-04T06:15:47.070Z,1008.92
2018-02-04T06:16:46.618Z,1008.85
2018-02-04T06:17:46.940Z,1008.89
2018-02-04T06:18:46.590Z,1008.93
2018-02-04T06:19:46.613Z,1008.89
2018-02-04T06:20:46.582Z,1008.99
2018-02-04T06:21:46.563Z,1009.08
2018-02-04T06:22:46.551Z,1009.04
2018-02-04T06:23:46.543Z,1009.07
2018-02-04T06:24:46.535Z,1009.05
2018-02-04T06:25:46.522Z,1009.08
2018-02-04T06:26:46.518Z,1009.14
2018-02-04T06:27:46.543Z,1009.16
2018-02-04T06:28:46.488Z,1009.19
2018-02-04T06:29:46.490Z,1009.23
2018-02-04T06:30:46.469Z,1009.22
2018-02-04T06:31:46.457Z,1009.25
2018-02-04T06:32:46.448Z,1009.26
2018-02-04T06:33:46.442Z,1009.25
2018-02-04T06:34:46.428Z,1009.25
2018-02-04T06:35:46.424Z,1009.28
2018-02-04T06:36:46.408Z,1009.29
2018-02-04T06:37:46.405Z,1009.31
2018-02-04T06:38:46.378Z,1009.37
2018-02-04T06:39:46.405Z,1009.41
2018-02-04T06:40:46.360Z,1009.40
2018-02-04T06:41:46.377Z,1009.43
2018-02-04T06:42:46.365Z,1009.47
2018-02-04T06:43:46.329Z,1009.45
2018-02-04T06:44:46.325Z,1009.45
2018-02-04T06:45:48.830Z,1009.49
2018-02-04T06:46:46.825Z,1009.48
2018-02-04T06:47:46.277Z,1009.48
2018-02-04T06:48:46.284Z,1009.49
2018-02-04T06:49:46.293Z,1009.49
2018-02-04T06:50:46.279Z,1009.54
2018-02-04T06:51:46.236Z,1009.53
2018-02-04T06:52:46.228Z,1009.62
2018-02-04T06:53:46.828Z,1009.54
2018-02-04T06:54:46.222Z,1009.65
2018-02-04T06:55:46.212Z,1009.69
2018-02-04T06:56:46.195Z,1009.65
2018-02-04T06:57:46.186Z,1009.67
2018-02-04T06:58:46.184Z,1009.74
2018-02-04T06:59:46.172Z,1009.74
2018-02-04T07:00:46.142Z,1009.78
2018-02-04T07:00:58.134Z,1009.83
2018-02-04T07:02:46.145Z,1009.74
2018-02-04T07:03:46.172Z,1009.81
2018-02-04T07:04:46.105Z,1009.87
2018-02-04T07:05:46.090Z,1009.85
2018-02-04T07:06:46.077Z,1009.89
2018-02-04T07:07:46.090Z,1009.90
2018-02-04T07:08:46.054Z,1009.95
2018-02-04T07:09:46.065Z,1009.96
2018-02-04T07:10:46.052Z,1009.98
2018-02-04T07:11:46.841Z,1010.00
2018-02-04T07:12:46.097Z,1010.03
2018-02-04T07:13:46.000Z,1010.10
2018-02-04T07:14:46.008Z,1010.12
2018-02-04T07:15:45.980Z,1010.09
2018-02-04T07:16:46.838Z,1010.16
2018-02-04T07:17:45.964Z,1010.12
2018-02-04T07:18:45.964Z,1010.16
2018-02-04T07:19:45.943Z,1010.15
2018-02-04T07:20:45.928Z,1010.22
2018-02-04T07:21:46.849Z,1010.21
2018-02-04T07:22:46.057Z,1010.22
2018-02-04T07:23:46.843Z,1010.26
2018-02-04T07:24:45.896Z,1010.23
2018-02-04T07:25:45.873Z,1010.27
2018-02-04T07:26:45.863Z,1010.29
2018-02-04T07:27:45.867Z,1010.26
2018-02-04T07:28:46.012Z,1010.25
2018-02-04T07:29:45.855Z,1010.29
2018-02-04T07:30:45.829Z,1010.30
2018-02-04T07:31:45.809Z,1010.29
2018-02-04T07:32:45.817Z,1010.27
2018-02-04T07:33:45.778Z,1010.33
2018-02-04T07:34:45.781Z,1010.33
2018-02-04T07:35:45.775Z,1010.33
2018-02-04T07:36:45.757Z,1010.35
2018-02-04T07:37:45.749Z,1010.36
2018-02-04T07:38:45.723Z,1010.38
2018-02-04T07:39:45.727Z,1010.35
2018-02-04T07:40:45.749Z,1010.37
2018-02-04T07:41:45.693Z,1010.34
2018-02-04T07:42:48.361Z,1010.36
2018-02-04T07:43:45.692Z,1010.37
2018-02-04T07:44:45.682Z,1010.37
2018-02-04T07:46:00.349Z,1010.38
2018-02-04T07:46:50.846Z,1010.41
2018-02-04T07:47:50.838Z,1010.46
2018-02-04T07:48:50.842Z,1010.45
2018-02-04T07:49:50.818Z,1010.50
2018-02-04T07:50:50.808Z,1010.57
2018-02-04T07:51:50.809Z,1010.53
2018-02-04T07:52:51.454Z,1010.63
2018-02-04T07:53:51.069Z,1010.62
2018-02-04T07:54:50.873Z,1010.60
2018-02-04T07:55:50.753Z,1010.64
2018-02-04T07:56:50.748Z,1010.65
2018-02-04T07:57:50.727Z,1010.67
2018-02-04T07:58:50.713Z,1010.71
2018-02-04T07:59:50.718Z,1010.67
2018-02-04T08:00:51.359Z,1010.69
2018-02-04T08:01:51.359Z,1010.69
2018-02-04T08:02:50.676Z,1010.70
2018-02-04T08:03:50.680Z,1010.70
2018-02-04T08:04:50.659Z,1010.69
2018-02-04T08:05:50.755Z,1010.72
2018-02-04T08:06:50.635Z,1010.70
2018-02-04T08:07:50.646Z,1010.74
2018-02-04T08:08:50.685Z,1010.83
2018-02-04T08:09:50.604Z,1010.77
2018-02-04T08:10:50.622Z,1010.85
2018-02-04T08:11:50.581Z,1010.80
2018-02-04T08:12:50.564Z,1010.87
2018-02-04T08:13:51.363Z,1010.85
2018-02-04T08:14:50.558Z,1010.86
2018-02-04T08:15:50.543Z,1010.87
2018-02-04T08:16:50.526Z,1010.91
2018-02-04T08:17:50.511Z,1010.89
2018-02-04T08:18:50.502Z,1010.95
2018-02-04T08:19:50.506Z,1011.00
2018-02-04T08:20:50.498Z,1010.93
2018-02-04T08:21:50.469Z,1011.02
2018-02-04T08:22:50.463Z,1011.02
2018-02-04T08:23:51.363Z,1011.02
2018-02-04T08:24:50.453Z,1011.04
2018-02-04T08:25:50.425Z,1011.07
2018-02-04T08:26:50.420Z,1011.07
2018-02-04T08:27:50.413Z,1011.10
2018-02-04T08:28:50.417Z,1011.17
2018-02-04T08:29:50.427Z,1011.16
2018-02-04T08:30:50.384Z,1011.12
2018-02-04T08:31:50.500Z,1011.19
2018-02-04T08:32:50.385Z,1011.19
2018-02-04T08:33:50.375Z,1011.24
2018-02-04T08:34:50.357Z,1011.23
2018-02-04T08:35:52.867Z,1011.24
2018-02-04T08:36:51.524Z,1011.31
2018-02-04T08:37:50.299Z,1011.30
2018-02-04T08:38:50.294Z,1011.36
2018-02-04T08:39:50.292Z,1011.37
2018-02-04T08:40:50.266Z,1011.38
2018-02-04T08:41:50.262Z,1011.36
2018-02-04T08:42:50.247Z,1011.36
2018-02-04T08:43:50.237Z,1011.42
2018-02-04T08:44:50.226Z,1011.36
2018-02-04T08:45:50.210Z,1011.42
2018-02-04T08:46:50.211Z,1011.52
2018-02-04T08:47:50.195Z,1011.43
2018-02-04T08:48:50.195Z,1011.45
2018-02-04T08:49:50.182Z,1011.50
2018-02-04T08:50:50.171Z,1011.52
2018-02-04T08:51:50.150Z,1011.53
2018-02-04T08:52:50.167Z,1011.53
2018-02-04T08:53:50.137Z,1011.56
2018-02-04T08:54:50.120Z,1011.53
2018-02-04T08:55:50.108Z,1011.55
2018-02-04T08:56:50.099Z,1011.57
2018-02-04T08:57:50.086Z,1011.56
2018-02-04T08:58:50.072Z,1011.60
2018-02-04T08:59:50.068Z,1011.67
2018-02-04T09:00:50.223Z,1011.64
2018-02-04T09:01:50.042Z,1011.64
2018-02-04T09:02:50.053Z,1011.65
2018-02-04T09:03:50.027Z,1011.67
2018-02-04T09:04:50.014Z,1011.64
2018-02-04T09:05:50.006Z,1011.65
2018-02-04T09:06:50.008Z,1011.67
2018-02-04T09:07:49.986Z,1011.67
2018-02-04T09:08:49.982Z,1011.69
2018-02-04T09:09:49.973Z,1011.69
2018-02-04T09:10:49.944Z,1011.66
2018-02-04T09:11:49.944Z,1011.69
2018-02-04T09:12:49.929Z,1011.66
2018-02-04T09:13:49.947Z,1011.69
2018-02-04T09:14:49.908Z,1011.67
2018-02-04T09:15:49.900Z,1011.69
2018-02-04T09:16:49.890Z,1011.72
2018-02-04T09:17:49.885Z,1011.73
2018-02-04T09:18:49.875Z,1011.75
2018-02-04T09:19:49.864Z,1011.74
2018-02-04T09:20:49.840Z,1011.78
2018-02-04T09:21:49.838Z,1011.81
2018-02-04T09:22:49.828Z,1011.83
2018-02-04T09:23:49.811Z,1011.85
2018-02-04T09:24:49.808Z,1011.86
2018-02-04T09:25:49.786Z,1011.86
2018-02-04T09:26:49.783Z,1011.84
2018-02-04T09:27:49.773Z,1011.84
2018-02-04T09:28:49.754Z,1011.85
2018-02-04T09:29:49.750Z,1011.87
2018-02-04T09:30:50.386Z,1011.83
2018-02-04T09:31:49.743Z,1011.83
2018-02-04T09:32:49.729Z,1011.84
2018-02-04T09:33:49.728Z,1011.84
2018-02-04T09:34:49.699Z,1011.83
2018-02-04T09:35:49.688Z,1011.87
2018-02-04T09:36:49.682Z,1011.83
2018-02-04T09:37:49.673Z,1011.90
2018-02-04T09:38:49.668Z,1011.90
2018-02-04T09:39:49.659Z,1011.88
2018-02-04T09:40:49.634Z,1011.97
2018-02-04T09:41:49.643Z,1011.93
2018-02-04T09:42:49.622Z,1011.92
2018-02-04T09:43:49.616Z,1011.97
2018-02-04T09:44:49.616Z,1011.97
2018-02-04T09:45:49.595Z,1011.96
2018-02-04T09:46:49.610Z,1011.93
2018-02-04T09:47:49.585Z,1011.99
2018-02-04T09:48:49.576Z,1011.96
2018-02-04T09:49:49.558Z,1011.96
2018-02-04T09:50:49.537Z,1012.01
2018-02-04T09:51:49.538Z,1012.06
2018-02-04T09:52:49.521Z,1012.03
2018-02-04T09:53:49.514Z,1012.04
2018-02-04T09:54:49.521Z,1012.08
2018-02-04T09:55:49.483Z,1012.07
2018-02-04T09:56:49.490Z,1012.07
2018-02-04T09:57:49.479Z,1012.08
2018-02-04T09:58:49.511Z,1012.08
2018-02-04T09:59:49.463Z,1012.12
2018-02-04T10:00:49.442Z,1012.12
2018-02-04T10:01:49.454Z,1012.14
2018-02-04T10:02:49.464Z,1012.10
2018-02-04T10:03:49.415Z,1012.21
2018-02-04T10:04:49.424Z,1012.15
2018-02-04T10:05:49.398Z,1012.19
2018-02-04T10:06:49.387Z,1012.18
2018-02-04T10:07:49.394Z,1012.20
2018-02-04T10:08:49.372Z,1012.29
2018-02-04T10:09:49.370Z,1012.25
2018-02-04T10:10:49.353Z,1012.28
2018-02-04T10:11:49.360Z,1012.30
2018-02-04T10:12:49.888Z,1012.32
2018-02-04T10:13:49.334Z,1012.37
2018-02-04T10:14:49.319Z,1012.37
2018-02-04T10:15:49.304Z,1012.37
2018-02-04T10:16:49.307Z,1012.39
2018-02-04T10:17:49.285Z,1012.42
2018-02-04T10:18:49.275Z,1012.40
2018-02-04T10:19:49.261Z,1012.46
2018-02-04T10:20:49.250Z,1012.48
2018-02-04T10:21:49.251Z,1012.46
2018-02-04T10:22:49.272Z,1012.45
2018-02-04T10:23:49.226Z,1012.49
2018-02-04T10:24:49.221Z,1012.60
2018-02-04T10:25:49.226Z,1012.59
2018-02-04T10:26:49.214Z,1012.53
2018-02-04T10:27:49.196Z,1012.53
2018-02-04T10:28:49.177Z,1012.59
2018-02-04T10:29:49.183Z,1012.61
2018-02-04T10:30:49.162Z,1012.64
2018-02-04T10:31:49.172Z,1012.60
2018-02-04T10:32:49.143Z,1012.59
2018-02-04T10:33:49.131Z,1012.57
2018-02-04T10:34:49.131Z,1012.56
2018-02-04T10:35:49.115Z,1012.59
2018-02-04T10:36:49.106Z,1012.63
2018-02-04T10:37:49.102Z,1012.63
2018-02-04T10:38:49.086Z,1012.63
2018-02-04T10:39:49.084Z,1012.60
2018-02-04T10:40:49.071Z,1012.62
2018-02-04T10:41:49.057Z,1012.62
2018-02-04T10:42:49.045Z,1012.64
2018-02-04T10:43:49.055Z,1012.75
2018-02-04T10:44:49.040Z,1012.75
2018-02-04T10:45:49.019Z,1012.68
2018-02-04T10:46:49.256Z,1012.70
2018-02-04T10:47:49.294Z,1012.69
2018-02-04T10:48:49.382Z,1012.71
2018-02-04T10:49:49.125Z,1012.72
2018-02-04T10:50:48.978Z,1012.71
2018-02-04T10:51:48.947Z,1012.67
2018-02-04T10:52:48.945Z,1012.66
2018-02-04T10:53:48.934Z,1012.68
2018-02-04T10:54:48.922Z,1012.64
2018-02-04T10:55:48.906Z,1012.69
2018-02-04T10:56:48.902Z,1012.72
2018-02-04T10:57:48.898Z,1012.71
2018-02-04T10:58:48.889Z,1012.68
2018-02-04T10:59:48.886Z,1012.71
2018-02-04T11:00:49.372Z,1012.78
2018-02-04T11:01:49.149Z,1012.77
2018-02-04T11:02:48.874Z,1012.68
2018-02-04T11:03:48.834Z,1012.71
2018-02-04T11:04:48.832Z,1012.72
2018-02-04T11:05:48.841Z,1012.74
2018-02-04T11:06:48.804Z,1012.81
2018-02-04T11:07:48.795Z,1012.80
2018-02-04T11:08:48.792Z,1012.82
2018-02-04T11:09:48.779Z,1012.81
2018-02-04T11:10:48.772Z,1012.82
2018-02-04T11:11:48.752Z,1012.84
2018-02-04T11:12:48.768Z,1012.85
2018-02-04T11:13:48.732Z,1012.86
2018-02-04T11:14:48.741Z,1012.86
2018-02-04T11:15:48.753Z,1012.89
2018-02-04T11:16:48.714Z,1012.92
2018-02-04T11:17:48.703Z,1012.93
2018-02-04T11:18:48.704Z,1012.92
2018-02-04T11:19:48.684Z,1012.93
2018-02-04T11:20:48.672Z,1012.94
2018-02-04T11:21:48.669Z,1012.88
2018-02-04T11:22:48.654Z,1012.86
2018-02-04T11:23:48.642Z,1012.90
2018-02-04T11:24:48.657Z,1012.90
2018-02-04T11:25:48.626Z,1012.88
2018-02-04T11:26:48.612Z,1012.91
2018-02-04T11:27:48.604Z,1012.86
2018-02-04T11:28:48.620Z,1012.87
2018-02-04T11:29:48.595Z,1012.92
2018-02-04T11:30:48.594Z,1012.91
2018-02-04T11:31:48.560Z,1012.94
2018-02-04T11:32:48.559Z,1012.89
2018-02-04T11:33:48.546Z,1012.94
2018-02-04T11:34:48.538Z,1012.94
2018-02-04T11:35:48.526Z,1012.94
2018-02-04T11:36:48.529Z,1012.99
2018-02-04T11:37:48.521Z,1013.01
2018-02-04T11:38:48.520Z,1012.96
2018-02-04T11:39:48.488Z,1012.98
2018-02-04T11:40:48.474Z,1013.00
2018-02-04T11:41:48.470Z,1013.01
2018-02-04T11:42:48.475Z,1013.02
2018-02-04T11:43:48.448Z,1013.05
2018-02-04T11:44:48.437Z,1013.08
2018-02-04T11:45:48.427Z,1013.05
2018-02-04T11:46:48.430Z,1013.06
2018-02-04T11:47:48.419Z,1013.06
2018-02-04T11:48:48.409Z,1013.10
2018-02-04T11:49:48.401Z,1013.08
2018-02-04T11:50:48.395Z,1013.11
2018-02-04T11:51:48.376Z,1013.10
2018-02-04T11:52:48.365Z,1013.10
2018-02-04T11:53:48.352Z,1013.10
2018-02-04T11:54:48.344Z,1013.10
2018-02-04T11:55:48.342Z,1013.11
2018-02-04T11:56:48.324Z,1013.15
2018-02-04T11:57:48.308Z,1013.12
2018-02-04T11:58:48.307Z,1013.13
2018-02-04T11:59:48.286Z,1013.11
2018-02-04T12:00:48.284Z,1013.15
2018-02-04T12:01:48.287Z,1013.16
2018-02-04T12:02:48.265Z,1013.17
2018-02-04T12:03:48.274Z,1013.17
2018-02-04T12:04:48.259Z,1013.22
2018-02-04T12:05:48.231Z,1013.22